createdAt,value
2019-05-30T00:01:36.875Z,0.30
2019-05-30T00:04:09.817Z,0.30
2019-05-30T00:06:42.860Z,0.30
2019-05-30T00:09:15.297Z,0.30
2019-05-30T00:11:48.081Z,0.30
2019-05-30T00:14:21.257Z,0.30
2019-05-30T00:16:54.602Z,0.30
2019-05-30T00:19:27.053Z,0.30
2019-05-30T00:22:00.757Z,0.20
2019-05-30T00:24:33.921Z,0.20
2019-05-30T00:27:06.931Z,0.30
2019-05-30T00:29:39.421Z,0.30
2019-05-30T00:32:13.051Z,0.30
2019-05-30T00:34:45.268Z,0.30
2019-05-30T00:37:17.550Z,0.30
2019-05-30T00:39:49.905Z,0.30
2019-05-30T00:42:22.805Z,0.30
2019-05-30T00:44:56.024Z,0.30
2019-05-30T00:47:28.385Z,0.27
2019-05-30T00:50:00.833Z,0.30
2019-05-30T00:52:33.815Z,0.23
2019-05-30T00:55:07.008Z,0.30
2019-05-30T00:57:39.790Z,0.30
2019-05-30T01:00:12.313Z,0.30
2019-05-30T01:02:45.582Z,0.30
2019-05-30T01:05:17.877Z,0.30
2019-05-30T01:07:50.380Z,0.30
2019-05-30T01:10:23.637Z,0.30
2019-05-30T01:12:56.863Z,0.30
2019-05-30T01:15:30.787Z,0.20
2019-05-30T01:18:03.279Z,0.30
2019-05-30T01:20:36.330Z,0.30
2019-05-30T01:23:08.938Z,0.30
2019-05-30T01:25:41.929Z,0.30
2019-05-30T01:28:14.502Z,0.37
2019-05-30T01:30:59.535Z,0.30
2019-05-30T01:33:21.430Z,0.30
2019-05-30T01:35:53.569Z,0.30
2019-05-30T01:38:26.262Z,0.30
2019-05-30T01:40:59.678Z,0.30
2019-05-30T01:43:32.102Z,0.30
2019-05-30T01:46:06.121Z,0.30
2019-05-30T01:48:38.645Z,0.40
2019-05-30T01:51:14.838Z,0.40
2019-05-30T01:53:48.394Z,0.40
2019-05-30T01:56:21.277Z,0.30
2019-05-30T01:58:53.521Z,0.40
2019-05-30T02:01:26.202Z,0.40
2019-05-30T02:03:59.100Z,0.30
2019-05-30T02:06:31.941Z,0.40
2019-05-30T02:09:07.350Z,0.30
2019-05-30T02:11:40.432Z,0.40
2019-05-30T02:14:14.648Z,0.40
2019-05-30T02:16:47.135Z,0.40
2019-05-30T02:19:19.486Z,0.40
2019-05-30T02:21:52.280Z,0.30
2019-05-30T02:24:24.509Z,0.40
2019-05-30T02:26:57.002Z,0.40
2019-05-30T02:29:29.773Z,0.40
2019-05-30T02:32:03.120Z,0.40
2019-05-30T02:34:36.544Z,0.40
2019-05-30T02:37:10.817Z,0.47
2019-05-30T02:39:44.169Z,0.40
2019-05-30T02:42:17.618Z,0.43
2019-05-30T02:44:50.233Z,0.50
2019-05-30T02:47:22.712Z,0.40
2019-05-30T02:49:55.894Z,0.40
2019-05-30T02:52:28.403Z,0.50
2019-05-30T02:55:01.717Z,0.40
2019-05-30T02:57:35.157Z,0.50
2019-05-30T03:00:12.475Z,0.40
2019-05-30T03:02:42.277Z,0.40
2019-05-30T03:05:15.415Z,0.50
2019-05-30T03:07:48.483Z,0.50
2019-05-30T03:10:21.367Z,0.40
2019-05-30T03:12:54.457Z,0.50
2019-05-30T03:15:27.576Z,0.40
2019-05-30T03:18:02.123Z,0.40
2019-05-30T03:20:34.228Z,0.40
2019-05-30T03:23:08.324Z,0.40
2019-05-30T03:25:40.728Z,0.40
2019-05-30T03:28:13.842Z,0.40
2019-05-30T03:30:47.852Z,0.40
2019-05-30T03:33:37.532Z,0.50
2019-05-30T03:35:53.987Z,0.40
2019-05-30T03:38:26.883Z,0.40
2019-05-30T03:41:09.090Z,0.40
2019-05-30T03:43:41.700Z,0.50
2019-05-30T03:46:18.474Z,0.40
2019-05-30T03:48:53.640Z,0.43
2019-05-30T03:51:29.223Z,0.40
2019-05-30T03:54:04.800Z,0.40
2019-05-30T03:56:40.437Z,0.40
2019-05-30T03:59:36.835Z,0.40
2019-05-30T04:02:18.796Z,0.40
2019-05-30T04:04:56.310Z,0.40
2019-05-30T04:07:31.310Z,0.40
2019-05-30T04:10:07.308Z,0.40
2019-05-30T04:13:28.963Z,0.40
2019-05-30T04:16:01.543Z,0.30
2019-05-30T04:18:34.078Z,0.40
2019-05-30T04:21:08.384Z,0.30
2019-05-30T04:23:41.021Z,0.40
2019-05-30T04:26:13.865Z,0.40
2019-05-30T04:28:47.152Z,0.40
2019-05-30T04:31:19.696Z,0.40
2019-05-30T04:33:52.037Z,0.40
2019-05-30T04:36:25.129Z,0.43
2019-05-30T04:38:57.303Z,0.40
2019-05-30T04:41:30.390Z,0.30
2019-05-30T04:44:03.352Z,0.40
2019-05-30T04:46:35.546Z,0.40
2019-05-30T04:49:09.656Z,0.40
2019-05-30T04:51:41.791Z,0.50
2019-05-30T04:54:14.682Z,0.40
2019-05-30T04:56:48.086Z,0.40
2019-05-30T04:59:21.978Z,0.40
2019-05-30T05:01:54.439Z,0.50
2019-05-30T05:04:27.031Z,0.40
2019-05-30T05:06:59.415Z,0.40
2019-05-30T05:09:31.870Z,0.50
2019-05-30T05:12:05.058Z,0.50
2019-05-30T05:14:37.098Z,0.40
2019-05-30T05:17:10.490Z,0.50
2019-05-30T05:19:43.519Z,0.40
2019-05-30T05:22:17.019Z,0.50
2019-05-30T05:24:49.913Z,0.50
2019-05-30T05:27:23.813Z,0.37
2019-05-30T05:29:56.787Z,0.50
2019-05-30T05:32:29.168Z,0.50
2019-05-30T05:35:01.603Z,0.47
2019-05-30T05:37:34.564Z,0.47
2019-05-30T05:40:08.539Z,0.40
2019-05-30T05:42:41.462Z,0.40
2019-05-30T05:45:14.250Z,0.50
2019-05-30T05:47:46.569Z,0.40
2019-05-30T05:50:20.456Z,0.40
2019-05-30T05:52:53.407Z,0.50
2019-05-30T05:55:25.675Z,0.40
2019-05-30T05:57:58.574Z,0.40
2019-05-30T06:00:31.126Z,0.50
2019-05-30T06:03:03.748Z,0.40
2019-05-30T06:05:50.061Z,0.50
2019-05-30T06:08:10.376Z,0.40
2019-05-30T06:10:43.564Z,0.40
2019-05-30T06:13:16.598Z,0.50
2019-05-30T06:15:49.564Z,0.50
2019-05-30T06:18:22.555Z,0.47
2019-05-30T06:20:54.829Z,0.40
2019-05-30T06:23:27.810Z,0.40
2019-05-30T06:26:00.691Z,0.40
2019-05-30T06:28:33.894Z,0.50
2019-05-30T06:31:06.249Z,0.40
2019-05-30T06:33:38.913Z,0.40
2019-05-30T06:36:11.284Z,0.40
2019-05-30T06:38:44.090Z,0.40
2019-05-30T06:41:16.804Z,0.50
2019-05-30T06:43:49.428Z,0.40
2019-05-30T06:46:22.537Z,0.43
2019-05-30T06:48:55.018Z,0.50
2019-05-30T06:51:29.108Z,0.50
2019-05-30T06:54:01.814Z,0.50
2019-05-30T06:56:34.436Z,0.50
2019-05-30T06:59:06.858Z,0.50
2019-05-30T07:01:40.165Z,0.60
2019-05-30T07:04:12.935Z,0.50
2019-05-30T07:06:46.570Z,0.40
2019-05-30T07:09:19.036Z,0.40
2019-05-30T07:11:52.006Z,0.50
2019-05-30T07:14:25.205Z,0.50
2019-05-30T07:16:58.293Z,0.40
2019-05-30T07:19:31.688Z,0.40
2019-05-30T07:22:05.153Z,0.50
2019-05-30T07:24:37.965Z,0.40
2019-05-30T07:27:11.000Z,0.50
2019-05-30T07:29:44.112Z,0.50
2019-05-30T07:32:16.237Z,0.40
2019-05-30T07:34:48.966Z,0.50
2019-05-30T07:37:21.775Z,0.50
2019-05-30T07:39:54.187Z,0.50
2019-05-30T07:42:27.053Z,0.50
2019-05-30T07:44:59.610Z,0.50
2019-05-30T07:47:32.583Z,0.47
2019-05-30T07:50:05.023Z,0.50
2019-05-30T07:52:38.903Z,0.50
2019-05-30T07:55:12.231Z,0.40
2019-05-30T07:57:44.606Z,0.40
2019-05-30T08:00:17.907Z,0.43
2019-05-30T08:02:50.619Z,0.40
2019-05-30T08:05:24.866Z,0.40
2019-05-30T08:07:57.458Z,0.50
2019-05-30T08:10:30.026Z,0.50
2019-05-30T08:13:02.653Z,0.50
2019-05-30T08:15:37.080Z,0.60
2019-05-30T08:18:08.774Z,0.43
2019-05-30T08:20:41.364Z,0.50
2019-05-30T08:23:13.899Z,0.50
2019-05-30T08:25:46.253Z,0.50
2019-05-30T08:28:18.922Z,0.50
2019-05-30T08:30:51.628Z,0.50
2019-05-30T08:33:24.006Z,0.50
2019-05-30T08:35:56.953Z,0.50
2019-05-30T08:38:29.598Z,0.40
2019-05-30T08:41:01.793Z,0.50
2019-05-30T08:43:35.462Z,0.50
2019-05-30T08:46:08.650Z,0.50
2019-05-30T08:48:40.973Z,0.50
2019-05-30T08:51:13.982Z,0.60
2019-05-30T08:53:47.090Z,0.50
2019-05-30T08:56:19.414Z,0.53
2019-05-30T08:58:52.137Z,0.50
2019-05-30T09:01:24.458Z,0.50
2019-05-30T09:03:56.572Z,0.50
2019-05-30T09:06:29.352Z,0.40
2019-05-30T09:09:02.047Z,0.40
2019-05-30T09:11:34.509Z,0.40
2019-05-30T09:14:08.493Z,0.50
2019-05-30T09:16:41.174Z,0.40
2019-05-30T09:19:13.885Z,0.50
2019-05-30T09:21:47.449Z,0.50
2019-05-30T09:24:20.003Z,0.40
2019-05-30T09:26:52.173Z,0.50
2019-05-30T09:29:24.575Z,0.50
2019-05-30T09:31:56.979Z,0.40
2019-05-30T09:34:29.558Z,0.50
2019-05-30T09:37:01.877Z,0.50
2019-05-30T09:39:34.891Z,0.40
2019-05-30T09:42:08.058Z,0.40
2019-05-30T09:44:40.965Z,0.50
2019-05-30T09:47:15.309Z,0.50
2019-05-30T09:49:48.545Z,0.50
2019-05-30T09:52:21.014Z,0.43
2019-05-30T09:54:53.663Z,0.50
2019-05-30T09:57:26.709Z,0.50
2019-05-30T09:59:59.900Z,0.50
2019-05-30T10:02:32.406Z,0.40
2019-05-30T10:05:06.931Z,0.50
2019-05-30T10:07:43.568Z,0.50
2019-05-30T10:10:17.002Z,0.50
2019-05-30T10:12:50.329Z,0.50
2019-05-30T10:15:22.873Z,0.40
2019-05-30T10:17:56.876Z,0.60
2019-05-30T10:20:30.501Z,0.50
2019-05-30T10:23:05.112Z,0.50
2019-05-30T10:25:37.603Z,0.40
2019-05-30T10:28:10.366Z,0.40
2019-05-30T10:30:42.845Z,0.50
2019-05-30T10:33:16.443Z,0.50
2019-05-30T10:35:49.164Z,0.50
2019-05-30T10:38:21.694Z,0.50
2019-05-30T10:40:54.123Z,0.50
2019-05-30T10:43:26.821Z,0.40
2019-05-30T10:45:59.533Z,0.50
2019-05-30T10:48:31.811Z,0.40
2019-05-30T10:51:04.650Z,0.40
2019-05-30T10:53:37.849Z,0.50
2019-05-30T10:56:10.678Z,0.40
2019-05-30T10:58:43.656Z,0.47
2019-05-30T11:01:16.332Z,0.50
2019-05-30T11:03:50.330Z,0.50
2019-05-30T11:06:37.785Z,0.40
2019-05-30T11:09:12.210Z,0.50
2019-05-30T11:11:44.673Z,0.50
2019-05-30T11:14:17.241Z,0.40
2019-05-30T11:16:51.395Z,0.50
2019-05-30T11:19:24.927Z,0.40
2019-05-30T11:21:58.192Z,0.40
2019-05-30T11:24:31.075Z,0.40
2019-05-30T11:27:03.815Z,0.50
2019-05-30T11:29:36.189Z,0.40
2019-05-30T11:32:08.850Z,0.40
2019-05-30T11:34:41.654Z,0.40
2019-05-30T11:37:18.447Z,0.50
2019-05-30T11:39:49.049Z,0.40
2019-05-30T11:42:21.942Z,0.50
2019-05-30T11:44:55.456Z,0.50
2019-05-30T11:47:29.011Z,0.30
2019-05-30T11:50:01.873Z,0.37
2019-05-30T11:52:34.310Z,0.40
2019-05-30T11:55:07.785Z,0.50
2019-05-30T11:57:39.867Z,0.50
2019-05-30T12:00:12.846Z,0.50
2019-05-30T12:02:45.229Z,0.50
2019-05-30T12:05:19.494Z,0.40
2019-05-30T12:07:52.834Z,0.50
2019-05-30T12:10:25.433Z,0.40
2019-05-30T12:12:57.507Z,0.50
2019-05-30T12:15:31.094Z,0.50
2019-05-30T12:18:03.253Z,0.40
2019-05-30T12:20:36.565Z,0.50
2019-05-30T12:23:09.545Z,0.50
2019-05-30T12:25:42.211Z,0.40
2019-05-30T12:28:15.609Z,0.40
2019-05-30T12:30:56.765Z,0.40
2019-05-30T12:33:21.908Z,0.40
2019-05-30T12:35:56.360Z,0.40
2019-05-30T12:38:29.202Z,0.40
2019-05-30T12:41:02.893Z,0.40
2019-05-30T12:43:35.963Z,0.50
2019-05-30T12:46:08.221Z,0.40
2019-05-30T12:48:41.445Z,0.40
2019-05-30T12:51:14.499Z,0.40
2019-05-30T12:56:23.232Z,0.37
2019-05-30T12:58:56.588Z,0.40
2019-05-30T13:01:29.578Z,0.40
2019-05-30T13:04:03.123Z,0.30
2019-05-30T13:06:35.940Z,0.40
2019-05-30T13:09:10.087Z,0.40
2019-05-30T13:11:43.393Z,0.30
2019-05-30T13:14:16.025Z,0.40
2019-05-30T13:16:48.273Z,0.40
2019-05-30T13:19:21.176Z,0.30
2019-05-30T13:21:55.368Z,0.30
2019-05-30T13:24:28.046Z,0.40
2019-05-30T13:27:01.835Z,0.30
2019-05-30T13:29:34.851Z,0.40
2019-05-30T13:32:07.857Z,0.30
2019-05-30T13:34:40.432Z,0.40
2019-05-30T13:37:12.965Z,0.37
2019-05-30T13:39:45.397Z,0.30
2019-05-30T13:42:18.367Z,0.40
2019-05-30T13:44:52.147Z,0.30
2019-05-30T13:47:24.782Z,0.30
2019-05-30T13:49:56.889Z,0.30
2019-05-30T13:52:29.753Z,0.30
2019-05-30T13:55:03.478Z,0.30
2019-05-30T13:57:36.961Z,0.30
2019-05-30T14:00:10.916Z,0.30
2019-05-30T14:02:43.621Z,0.30
2019-05-30T14:05:16.373Z,0.30
2019-05-30T14:07:49.133Z,0.30
2019-05-30T14:10:21.871Z,0.20
2019-05-30T14:12:55.114Z,0.30
2019-05-30T14:15:28.083Z,0.30
2019-05-30T14:18:07.142Z,0.30
2019-05-30T14:20:39.964Z,0.30
2019-05-30T14:23:12.888Z,0.20
2019-05-30T14:25:45.421Z,0.30
2019-05-30T14:28:17.857Z,0.30
2019-05-30T14:30:51.015Z,0.30
2019-05-30T14:33:23.324Z,0.23
2019-05-30T14:35:56.037Z,0.30
2019-05-30T14:38:28.877Z,0.30
2019-05-30T14:41:02.813Z,0.20
2019-05-30T14:43:35.725Z,0.30
2019-05-30T14:46:08.374Z,0.30
2019-05-30T14:48:41.513Z,0.30
2019-05-30T14:51:14.264Z,0.30
2019-05-30T14:53:46.634Z,0.30
2019-05-30T14:56:19.294Z,0.27
2019-05-30T14:58:52.109Z,0.30
2019-05-30T15:01:24.766Z,0.30
2019-05-30T15:03:57.125Z,0.30
2019-05-30T15:06:30.287Z,0.20
2019-05-30T15:09:16.327Z,0.30
2019-05-30T15:11:36.171Z,0.30
2019-05-30T15:14:08.722Z,0.30
2019-05-30T15:16:41.053Z,0.30
2019-05-30T15:19:14.326Z,0.30
2019-05-30T15:21:46.805Z,0.30
2019-05-30T15:24:20.201Z,0.30
2019-05-30T15:26:53.294Z,0.30
2019-05-30T15:29:25.854Z,0.30
2019-05-30T15:31:58.816Z,0.30
2019-05-30T15:34:31.941Z,0.20
2019-05-30T15:37:04.723Z,0.20
2019-05-30T15:39:37.480Z,0.30
2019-05-30T15:42:12.058Z,0.30
2019-05-30T15:44:44.917Z,0.30
2019-05-30T15:47:18.375Z,0.30
2019-05-30T15:49:52.290Z,0.30
2019-05-30T15:52:25.410Z,0.20
2019-05-30T15:54:58.298Z,0.20
2019-05-30T15:57:30.853Z,0.20
2019-05-30T16:00:03.719Z,0.20
2019-05-30T16:02:36.061Z,0.20
2019-05-30T16:05:10.470Z,0.20
2019-05-30T16:07:43.441Z,0.30
2019-05-30T16:10:17.054Z,0.30
2019-05-30T16:12:50.051Z,0.30
2019-05-30T16:15:23.888Z,0.30
2019-05-30T16:17:56.631Z,0.20
2019-05-30T16:20:29.148Z,0.30
2019-05-30T16:23:01.660Z,0.20
2019-05-30T16:25:34.689Z,0.23
2019-05-30T16:28:07.370Z,0.30
2019-05-30T16:30:40.018Z,0.30
2019-05-30T16:33:12.210Z,0.23
2019-05-30T16:35:45.194Z,0.30
2019-05-30T16:38:18.097Z,0.20
2019-05-30T16:40:50.734Z,0.30
2019-05-30T16:43:24.920Z,0.20
2019-05-30T16:45:57.426Z,0.20
2019-05-30T16:48:30.003Z,0.30
2019-05-30T16:51:02.785Z,0.30
2019-05-30T16:53:35.382Z,0.30
2019-05-30T16:56:08.394Z,0.30
2019-05-30T16:58:41.469Z,0.20
2019-05-30T17:01:15.661Z,0.30
2019-05-30T17:03:50.452Z,0.30
2019-05-30T17:06:22.919Z,0.30
2019-05-30T17:08:55.359Z,0.20
2019-05-30T17:11:28.525Z,0.20
2019-05-30T17:14:01.514Z,0.20
2019-05-30T17:16:34.689Z,0.30
2019-05-30T17:19:07.188Z,0.27
2019-05-30T17:21:41.196Z,0.20
2019-05-30T17:24:13.974Z,0.30
2019-05-30T17:26:50.326Z,0.20
2019-05-30T17:29:21.560Z,0.20
2019-05-30T17:31:54.110Z,0.20
2019-05-30T17:34:26.462Z,0.20
2019-05-30T17:36:59.516Z,0.20
2019-05-30T17:39:32.909Z,0.20
2019-05-30T17:42:05.907Z,0.20
2019-05-30T17:44:38.755Z,0.20
2019-05-30T17:47:11.572Z,0.20
2019-05-30T17:49:47.325Z,0.20
2019-05-30T17:52:21.692Z,0.20
2019-05-30T17:54:54.554Z,0.20
2019-05-30T17:57:28.135Z,0.20
2019-05-30T18:00:01.437Z,0.20
2019-05-30T18:02:34.205Z,0.20
2019-05-30T18:05:07.906Z,0.20
2019-05-30T18:07:40.833Z,0.20
2019-05-30T18:10:13.886Z,0.20
2019-05-30T18:12:45.993Z,0.20
2019-05-30T18:15:19.257Z,0.20
2019-05-30T18:17:51.674Z,0.20
2019-05-30T18:20:25.319Z,0.20
2019-05-30T18:22:58.783Z,0.20
2019-05-30T18:25:31.839Z,0.20
2019-05-30T18:28:04.655Z,0.20
2019-05-30T18:30:44.642Z,0.20
2019-05-30T18:33:17.160Z,0.20
2019-05-30T18:35:49.694Z,0.20
2019-05-30T18:38:22.463Z,0.20
2019-05-30T18:41:10.305Z,0.20
2019-05-30T18:43:29.435Z,0.20
2019-05-30T18:46:02.252Z,0.20
2019-05-30T18:48:34.761Z,0.20
2019-05-30T18:51:08.186Z,0.20
2019-05-30T18:53:41.029Z,0.20
2019-05-30T18:56:13.030Z,0.20
2019-05-30T18:58:46.058Z,0.20
2019-05-30T19:01:18.714Z,0.20
2019-05-30T19:03:51.064Z,0.23
2019-05-30T19:06:23.853Z,0.20
2019-05-30T19:08:56.479Z,0.20
2019-05-30T19:11:34.587Z,0.20
2019-05-30T19:14:03.948Z,0.20
2019-05-30T19:16:36.951Z,0.20
2019-05-30T19:19:10.064Z,0.20
2019-05-30T19:21:42.944Z,0.20
2019-05-30T19:24:16.441Z,0.20
2019-05-30T19:26:48.929Z,0.20
2019-05-30T19:29:21.973Z,0.20
2019-05-30T19:31:54.685Z,0.20
2019-05-30T19:34:27.067Z,0.20
2019-05-30T19:37:00.046Z,0.20
2019-05-30T19:39:33.643Z,0.20
2019-05-30T19:42:06.050Z,0.20
2019-05-30T19:44:41.534Z,0.20
2019-05-30T19:47:12.371Z,0.20
2019-05-30T19:49:44.834Z,0.13
2019-05-30T19:52:17.458Z,0.20
2019-05-30T19:54:49.667Z,0.20
2019-05-30T19:57:22.018Z,0.20
2019-05-30T19:59:57.315Z,0.20
2019-05-30T20:02:29.862Z,0.20
2019-05-30T20:05:03.518Z,0.20
2019-05-30T20:07:36.718Z,0.20
2019-05-30T20:10:11.235Z,0.20
2019-05-30T20:12:43.793Z,0.20
2019-05-30T20:15:16.582Z,0.20
2019-05-30T20:17:49.070Z,0.20
2019-05-30T20:20:21.343Z,0.30
2019-05-30T20:22:53.919Z,0.20
2019-05-30T20:25:26.527Z,0.23
2019-05-30T20:27:59.836Z,0.20
2019-05-30T20:30:32.890Z,0.20
2019-05-30T20:33:05.790Z,0.17
2019-05-30T20:35:40.055Z,0.20
2019-05-30T20:38:12.498Z,0.20
2019-05-30T20:40:45.230Z,0.20
2019-05-30T20:43:17.771Z,0.20
2019-05-30T20:45:50.386Z,0.20
2019-05-30T20:48:22.517Z,0.20
2019-05-30T20:50:55.233Z,0.20
2019-05-30T20:53:27.610Z,0.20
2019-05-30T20:56:00.338Z,0.20
2019-05-30T20:58:52.072Z,0.27
2019-05-30T21:01:22.601Z,0.20
2019-05-30T21:03:54.946Z,0.20
2019-05-30T21:06:27.455Z,0.20
2019-05-30T21:09:01.015Z,0.20
2019-05-30T21:11:35.949Z,0.20
2019-05-30T21:14:09.319Z,0.20
2019-05-30T21:16:45.877Z,0.13
2019-05-30T21:19:18.664Z,0.20
2019-05-30T21:21:50.827Z,0.20
2019-05-30T21:24:23.802Z,0.20
2019-05-30T21:26:56.105Z,0.20
2019-05-30T21:29:29.262Z,0.20
2019-05-30T21:32:02.981Z,0.20
2019-05-30T21:34:35.089Z,0.20
2019-05-30T21:37:08.460Z,0.20
2019-05-30T21:39:42.040Z,0.20
2019-05-30T21:42:14.679Z,0.20
2019-05-30T21:44:50.933Z,0.20
2019-05-30T21:47:21.006Z,0.20
2019-05-30T21:49:54.180Z,0.20
2019-05-30T21:52:26.894Z,0.20
2019-05-30T21:55:03.067Z,0.20
2019-05-30T21:57:33.618Z,0.20
2019-05-30T22:00:07.233Z,0.20
2019-05-30T22:02:40.373Z,0.20
2019-05-30T22:05:12.809Z,0.20
2019-05-30T22:07:45.409Z,0.20
2019-05-30T22:10:18.019Z,0.20
2019-05-30T22:12:51.735Z,0.20
2019-05-30T22:15:24.620Z,0.20
2019-05-30T22:17:57.477Z,0.20
2019-05-30T22:20:30.258Z,0.20
2019-05-30T22:23:02.926Z,0.20
2019-05-30T22:25:35.254Z,0.20
2019-05-30T22:28:08.264Z,0.20
2019-05-30T22:30:40.698Z,0.23
2019-05-30T22:33:14.035Z,0.20
2019-05-30T22:35:46.763Z,0.20
2019-05-30T22:38:21.669Z,0.20
2019-05-30T22:40:54.529Z,0.20
2019-05-30T22:43:26.829Z,0.20
2019-05-30T22:45:59.315Z,0.20
2019-05-30T22:48:31.721Z,0.20
2019-05-30T22:51:03.802Z,0.20
2019-05-30T22:53:36.449Z,0.23
2019-05-30T22:56:09.995Z,0.20
2019-05-30T22:58:42.606Z,0.20
2019-05-30T23:01:16.942Z,0.30
2019-05-30T23:03:49.414Z,0.20
2019-05-30T23:06:22.107Z,0.23
2019-05-30T23:08:55.173Z,0.20
2019-05-30T23:11:27.434Z,0.20
2019-05-30T23:14:02.791Z,0.20
2019-05-30T23:16:35.256Z,0.30
2019-05-30T23:19:07.649Z,0.20
2019-05-30T23:21:40.525Z,0.20
2019-05-30T23:24:13.894Z,0.20
2019-05-30T23:26:47.391Z,0.20
2019-05-30T23:29:20.012Z,0.30
2019-05-30T23:34:28.908Z,0.20
2019-05-30T23:37:01.412Z,0.20
2019-05-30T23:39:34.460Z,0.20
2019-05-30T23:42:07.147Z,0.20
2019-05-30T23:44:39.649Z,0.20
2019-05-30T23:47:12.769Z,0.30
2019-05-30T23:49:45.872Z,0.20
2019-05-30T23:52:18.199Z,0.27
2019-05-30T23:54:50.317Z,0.30
2019-05-30T23:57:22.957Z,0.20
2019-05-30T23:59:56.752Z,0.30
